Flight Track Log - Related Links

Times and Time Zones

All times are in EDT time to prevent confusion due to time zone crossing. See the DAL40 flight status page for this flight to view local times or setup timezone preferences in your user account.

Time Position Orientation Groundspeed Altitude Reporting Facility
EDT Latitude Longitude Course Direction KTS MPH feet Rate Location/Type
Tue 10:52:25 PM 44.9028 -93.2508 North 253 291 2,400  Level FAA TRACON SMA TRACON (SMA)
Tue 10:53:05 PM 44.9389 -93.2497 North 192 221 3,100 1,481 Climbing FAA TRACON SMA TRACON (SMA)
Tue 10:53:46 PM 44.9778 -93.2489 21° North 230 265 4,400 2,444 Climbing FAA TRACON SMA TRACON (SMA)
Tue 10:54:26 PM 45.0222 -93.2250 65° Northeast 257 296 6,400 2,925 Climbing FAA TRACON SMA TRACON (SMA)
Tue 10:55:06 PM 45.0450 -93.1572 67° East 283 326 8,300 2,582 Climbing FAA TRACON SMA TRACON (SMA)
Tue 10:55:45 PM 45.0642 -93.0922 66° East 291 335 9,800 2,100 Climbing FAA TRACON SMA TRACON (SMA)
Tue 10:56:26 PM 45.0883 -93.0142 66° East 318 366 11,100 1,630 Climbing FAA TRACON SMA TRACON (SMA)
Tue 10:57:06 PM 45.1150 -92.9283 66° East 352 405 12,000 1,275 Climbing FAA TRACON SMA TRACON (SMA)
Tue 10:57:46 PM 45.1422 -92.8433 67° East 390 449 12,800 1,875 Climbing FAA TRACON SMA TRACON (SMA)
Tue 10:58:26 PM 45.1728 -92.7403 66° East 414 476 14,500 2,550 Climbing FAA TRACON SMA TRACON (SMA)
Tue 10:59:06 PM 45.2053 -92.6350 67° East 422 486 16,200 2,400 Climbing FAA TRACON SMA TRACON (SMA)
Tue 10:59:46 PM 45.2336 -92.5403 66° East 426 490 17,700 2,127 Climbing FAA TRACON SMA TRACON (SMA)
Tue 11:00:25 PM 45.2675 -92.4306 67° East 438 504 19,000 1,823 Climbing FAA TRACON SMA TRACON (SMA)
Tue 11:01:05 PM 45.2978 -92.3311 74° East 447 514 20,100 1,704 Climbing FAA TRACON SMA TRACON (SMA)
Tue 11:01:46 PM 45.3222 -92.2089 77° East 467 537 21,300 1,800 Climbing FAA TRACON SMA TRACON (SMA)
Tue 11:02:25 PM 45.3425 -92.0819 78° East 479 551 22,500 1,425 Climbing FAA TRACON SMA TRACON (SMA)
Tue 11:03:06 PM 45.3558 -91.9953 82° East 487 560 23,200 1,588 Climbing FAA TRACON SMA TRACON (SMA)
Tue 11:04:07 PM 45.3792 -91.7606 78° East 492 566 25,200 1,934 Climbing Minneapolis Center
Tue 11:05:07 PM 45.4072 -91.5675 80° East 500 575 27,100 1,900 Climbing Minneapolis Center
Tue 11:06:07 PM 45.4311 -91.3714 81° East 500 575 29,000 1,765 Climbing Minneapolis Center
Tue 11:07:06 PM 45.4522 -91.1811 79° East 500 575 30,600 1,412 Climbing Minneapolis Center
Tue 11:08:06 PM 45.4775 -90.9875 76° East 494 568 31,800 1,190 Climbing Minneapolis Center
Tue 11:09:07 PM 45.5108 -90.8025 77° East 483 556 33,000 595 Climbing Minneapolis Center
Tue 11:10:07 PM 45.5417 -90.6114 77° East 483 556 33,000  Level Minneapolis Center
Tue 11:11:06 PM 45.5722 -90.4258 76° East 483 556 33,000  Level Minneapolis Center
Tue 11:12:06 PM 45.6028 -90.2431 76° East 473 544 33,000  Level Minneapolis Center
Tue 11:13:06 PM 45.6350 -90.0572 78° East 473 544 33,000  Level Minneapolis Center
Tue 11:14:07 PM 45.6625 -89.8742 76° East 473 544 33,000  Level Minneapolis Center
Tue 11:15:06 PM 45.6925 -89.7058 77° East 478 550 33,000  Level Minneapolis Center
Tue 11:16:06 PM 45.7253 -89.4983 78° East 483 556 33,000  Level Minneapolis Center
Tue 11:17:06 PM 45.7539 -89.3086 76° East 483 556 33,000  Level Minneapolis Center
Tue 11:18:06 PM 45.7831 -89.1367 78° East 489 563 33,000  Level Minneapolis Center
Tue 11:19:06 PM 45.8111 -88.9469 79° East 489 563 33,000  Level Minneapolis Center
Tue 11:20:06 PM 45.8383 -88.7478 77° East 489 563 33,000  Level Minneapolis Center
Tue 11:21:06 PM 45.8681 -88.5572 78° East 489 563 33,000  Level Minneapolis Center
Tue 11:22:07 PM 45.8969 -88.3636 77° East 489 563 33,000  Level Minneapolis Center
Tue 11:23:06 PM 45.9294 -88.1606 79° East 489 563 33,000  Level Minneapolis Center
Tue 11:24:06 PM 45.9575 -87.9606 79° East 489 563 33,000  Level Minneapolis Center
Tue 11:25:07 PM 45.9836 -87.7694 78° East 489 563 33,000  Level Minneapolis Center
Tue 11:26:06 PM 46.0133 -87.5747 79° East 489 563 33,000  Level Minneapolis Center
Tue 11:27:07 PM 46.0389 -87.3833 79° East 489 563 33,000  Level Minneapolis Center
Tue 11:28:06 PM 46.0658 -87.1886 79° East 489 563 33,000  Level Minneapolis Center
Tue 11:29:06 PM 46.0925 -86.9936 80° East 489 563 33,000  Level Minneapolis Center
Tue 11:30:06 PM 46.1169 -86.8019 80° East 489 563 33,000  Level Minneapolis Center
Tue 11:31:07 PM 46.1350 -86.6467 80° East 489 563 33,000  Level Minneapolis Center
Tue 11:32:07 PM 46.1628 -86.4178 79° East 489 563 33,000  Level Minneapolis Center
Tue 11:33:07 PM 46.1897 -86.2161 79° East 489 563 33,000  Level Minneapolis Center
Tue 11:34:06 PM 46.2167 -86.0200 80° East 496 571 33,000  Level Minneapolis Center
Tue 11:35:06 PM 46.2369 -85.8489 70° East 488 562 33,000  Level Minneapolis Center
Tue 11:36:06 PM 46.2844 -85.6586 62° Northeast 488 562 33,000  Level Minneapolis Center
Tue 11:37:06 PM 46.3497 -85.4836 61° Northeast 481 554 33,000  Level Minneapolis Center
Tue 11:38:06 PM 46.4147 -85.3108 62° Northeast 488 562 33,000  Level Minneapolis Center
Tue 11:39:07 PM 46.4792 -85.1319 62° Northeast 493 567 33,000  Level Minneapolis Center
Tue 11:40:06 PM 46.5436 -84.9556 68° East 493 567 33,000  Level Minneapolis Center
Tue 11:41:12 PM 46.6000 -84.7500 56° Northeast 490 564 33,000  Level Toronto Center
Tue 11:42:12 PM 46.6833 -84.5667 66° East 490 564 33,000  Level Toronto Center
Tue 11:43:12 PM 46.7333 -84.4000 60° Northeast 500 575 33,000  Level Toronto Center
Tue 11:44:12 PM 46.8000 -84.2333 62° Northeast 500 575 33,000  Level Toronto Center
Tue 11:45:12 PM 46.8667 -84.0500 70° East 500 575 33,000  Level Toronto Center
Tue 11:46:12 PM 46.9167 -83.8500 56° Northeast 500 575 33,000  Level Toronto Center
Tue 11:47:12 PM 47.0000 -83.6667 66° East 500 575 33,000  Level Toronto Center
Tue 11:48:12 PM 47.0500 -83.5000 70° East 510 587 33,000  Level Toronto Center
Tue 11:49:12 PM 47.1000 -83.3000 56° Northeast 510 587 33,000  Level Toronto Center
Tue 11:50:12 PM 47.1833 -83.1167 70° East 510 587 33,000  Level Toronto Center
Tue 11:51:12 PM 47.2333 -82.9167 59° Northeast 510 587 33,000  Level Toronto Center
Tue 11:52:12 PM 47.3000 -82.7500 62° Northeast 510 587 33,000  Level Toronto Center
Tue 11:53:12 PM 47.3667 -82.5667 64° Northeast 510 587 33,000  Level Toronto Center
Tue 11:54:12 PM 47.4333 -82.3667 70° East 520 598 33,000  Level Toronto Center
Tue 11:55:12 PM 47.4833 -82.1667 56° Northeast 520 598 33,000  Level Toronto Center
Tue 11:56:12 PM 47.5667 -81.9833 70° East 530 610 33,000  Level Toronto Center
Tue 11:57:12 PM 47.6167 -81.7833 64° Northeast 530 610 33,000  Level Toronto Center
Tue 11:58:12 PM 47.6833 -81.5833 70° East 530 610 33,000  Level Toronto Center
Tue 11:59:12 PM 47.7333 -81.3833 62° Northeast 530 610 33,000  Level Toronto Center
Wed 12:00:12 AM 47.8000 -81.2000 70° East 520 598 33,000  Level Toronto Center
Wed 12:01:12 AM 47.8500 -81.0000 58° Northeast 520 598 33,000  Level Toronto Center
Wed 12:02:12 AM 47.9333 -80.8000 69° East 520 598 33,000  Level Toronto Center
Wed 12:03:12 AM 47.9833 -80.6000 63° Northeast 520 598 33,000  Level Toronto Center
Wed 12:04:12 AM 48.0500 -80.4000 66° East 510 587 33,000  Level Toronto Center
Wed 12:05:12 AM 48.1000 -80.2333 69° East 510 587 33,000  Level Toronto Center
Wed 12:06:12 AM 48.1500 -80.0333 59° Northeast 500 575 33,000  Level Toronto Center
Wed 12:06:45 AM 48.1833 -79.9500 63° Northeast 500 575 33,000  Level Montreal Center
Wed 12:07:45 AM 48.2500 -79.7500 66° East 500 575 33,000  Level Montreal Center
Wed 12:08:45 AM 48.3000 -79.5833 63° Northeast 500 575 33,000  Level Montreal Center
Wed 12:09:45 AM 48.3667 -79.3833 69° East 500 575 33,000  Level Montreal Center
Wed 12:10:45 AM 48.4167 -79.1833 66° East 500 575 33,000  Level Montreal Center
Wed 12:11:45 AM 48.4667 -79.0167 63° Northeast 500 575 33,000  Level Montreal Center
Wed 12:12:45 AM 48.5333 -78.8167 69° East 500 575 33,000  Level Montreal Center
Wed 12:13:45 AM 48.5833 -78.6167 71° East 500 575 33,000  Level Montreal Center
Wed 12:14:45 AM 48.6333 -78.4000 63° Northeast 510 587 33,000  Level Montreal Center
Wed 12:15:45 AM 48.7000 -78.2000 69° East 510 587 33,000  Level Montreal Center
Wed 12:16:45 AM 48.7500 -78.0000 69° East 510 587 33,000  Level Montreal Center
Wed 12:17:45 AM 48.8000 -77.8000 69° East 510 587 33,000  Level Montreal Center
Wed 12:18:45 AM 48.8500 -77.6000 69° East 510 587 33,000  Level Montreal Center
Wed 12:19:45 AM 48.9000 -77.4000 63° Northeast 520 598 33,000  Level Montreal Center
Wed 12:20:45 AM 48.9667 -77.2000 71° East 520 598 33,000  Level Montreal Center
Wed 12:21:45 AM 49.0167 -76.9833 69° East 510 587 33,000  Level Montreal Center
Wed 12:22:45 AM 49.0667 -76.7833 67° East 510 587 33,000  Level Montreal Center
Wed 12:23:45 AM 49.1167 -76.6000 70° East 510 587 33,000  Level Montreal Center
Wed 12:24:45 AM 49.1667 -76.3833 67° East 510 587 33,000  Level Montreal Center
Wed 12:25:45 AM 49.2167 -76.2000 69° East 500 575 33,000  Level Montreal Center
Wed 12:26:45 AM 49.2667 -76.0000 70° East 500 575 33,000  Level Montreal Center
Wed 12:27:45 AM 49.3167 -75.7833 69° East 500 575 33,000  Level Montreal Center
Wed 12:28:45 AM 49.3667 -75.5833 67° East 500 575 33,000  Level Montreal Center
Wed 12:29:45 AM 49.4167 -75.4000 70° East 500 575 33,000 -200 Level Montreal Center
Wed 12:30:45 AM 49.4667 -75.1833 69° East 490 564 32,600 -500 Descending Montreal Center
Wed 12:31:45 AM 49.5167 -74.9833 70° East 500 575 32,000 -300 Descending Montreal Center
Wed 12:32:45 AM 49.5667 -74.7667 67° East 500 575 32,000  Level Montreal Center
Wed 12:33:45 AM 49.6167 -74.5833 69° East 490 564 32,000  Level Montreal Center
Wed 12:34:45 AM 49.6667 -74.3833 77° East 490 564 32,000 -200 Level Montreal Center
Wed 12:35:45 AM 49.7000 -74.1667 67° East 490 564 31,600 -400 Descending Montreal Center
Wed 12:36:45 AM 49.7500 -73.9833 69° East 490 564 31,200 -300 Descending Montreal Center
Wed 12:37:45 AM 49.8000 -73.7833 74° East 490 564 31,000 -100 Descending Montreal Center
Wed 12:38:45 AM 49.8333 -73.6000 64° Northeast 490 564 31,000  Level Montreal Center
Wed 12:39:45 AM 49.9000 -73.3833 82° East 500 575 31,000  Level Montreal Center
Wed 12:40:45 AM 49.9167 -73.2000 70° East 490 564 31,000  Level Montreal Center
Wed 12:41:45 AM 49.9667 -72.9833 70° East 490 564 31,000  Level Montreal Center
Wed 12:42:45 AM 50.0167 -72.7667 75° East 490 564 31,000  Level Montreal Center
Wed 12:43:45 AM 50.0500 -72.5667 69° East 490 564 31,000  Level Montreal Center
Wed 12:44:45 AM 50.1000 -72.3667 70° East 480 552 31,000  Level Montreal Center
Wed 12:45:45 AM 50.1500 -72.1500 74° East 480 552 31,000  Level Montreal Center
Wed 12:46:45 AM 50.1833 -71.9667 67° East 480 552 31,000  Level Montreal Center
Wed 12:47:45 AM 50.2333 -71.7833 70° East 480 552 31,000  Level Montreal Center
Wed 12:48:45 AM 50.2833 -71.5667 74° East 480 552 31,000  Level Montreal Center
Wed 12:49:45 AM 50.3167 -71.3833 70° East 480 552 31,000  Level Montreal Center
Wed 12:50:45 AM 50.3667 -71.1667 82° East 480 552 31,000  Level Montreal Center
Wed 12:51:45 AM 50.3833 -70.9833 70° East 480 552 31,000  Level Montreal Center
Wed 12:52:45 AM 50.4333 -70.7667 75° East 480 552 31,000  Level Montreal Center
Wed 12:53:45 AM 50.4667 -70.5667 70° East 480 552 31,000  Level Montreal Center
Wed 12:54:45 AM 50.5167 -70.3500 74° East 480 552 31,000  Level Montreal Center
Wed 12:55:45 AM 50.5500 -70.1667 76° East 480 552 31,000  Level Montreal Center
Wed 12:56:45 AM 50.5833 -69.9500 75° East 480 552 31,000  Level Montreal Center
Wed 12:57:45 AM 50.6167 -69.7500 74° East 480 552 31,000  Level Montreal Center
Wed 12:58:45 AM 50.6500 -69.5667 76° East 480 552 31,000  Level Montreal Center
Wed 12:59:45 AM 50.6833 -69.3500 68° East 480 552 31,000  Level Montreal Center
Wed 01:00:45 AM 50.7333 -69.1500 76° East 480 552 31,000  Level Montreal Center
Wed 01:01:45 AM 50.7667 -68.9333 75° East 490 564 31,000  Level Montreal Center
Wed 01:02:45 AM 50.8000 -68.7333 70° East 490 564 31,000  Level Montreal Center
Wed 01:03:45 AM 50.8500 -68.5167 76° East 490 564 31,000  Level Montreal Center
Wed 01:04:45 AM 50.8833 -68.3000 75° East 490 564 31,000  Level Montreal Center
Wed 01:05:45 AM 50.9167 -68.1000 76° East 490 564 31,000  Level Montreal Center
Wed 01:06:45 AM 50.9500 -67.8833 74° East 490 564 31,000  Level Montreal Center
Wed 01:07:45 AM 50.9833 -67.7000 77° East 490 564 31,000  Level Montreal Center
Wed 01:08:45 AM 51.0167 -67.4667 76° East 490 564 31,000  Level Montreal Center
Wed 01:09:45 AM 51.0500 -67.2500 68° East 490 564 31,000  Level Montreal Center
Wed 01:10:45 AM 51.1000 -67.0500 76° East 490 564 31,000  Level Montreal Center
Wed 01:11:45 AM 51.1333 -66.8333 83° East 490 564 31,000  Level Montreal Center
Wed 01:12:45 AM 51.1500 -66.6167 77° East 490 564 31,000  Level Montreal Center
Wed 01:13:45 AM 51.1833 -66.3833 75° East 490 564 31,000  Level Montreal Center
Wed 01:14:45 AM 51.2167 -66.1833 76° East 490 564 31,000  Level Montreal Center
Wed 01:15:45 AM 51.2500 -65.9667 76° East 500 575 31,000  Level Montreal Center
Wed 01:16:45 AM 51.2833 -65.7500 75° East 500 575 31,000  Level Montreal Center
Wed 01:17:45 AM 51.3167 -65.5500 80° East 500 575 31,000  Level Montreal Center
Wed 01:18:36 AM 51.3333 -65.4000 75° East 500 575 31,000  Level Gander Center
Wed 01:19:36 AM 51.3667 -65.2000 78° East 500 575 31,000  Level Gander Center
Wed 01:20:36 AM 51.4000 -64.9500 82° East 500 575 31,000  Level Gander Center
Wed 01:21:36 AM 51.4167 -64.7500 72° East 500 575 31,000  Level Gander Center
Wed 01:22:36 AM 51.4667 -64.5000 82° East 500 575 31,000  Level Gander Center
Wed 01:23:36 AM 51.4833 -64.3167 76° East 500 575 31,000  Level Gander Center
Wed 01:24:36 AM 51.5167 -64.1000 77° East 500 575 31,000  Level Gander Center
Wed 01:25:36 AM 51.5500 -63.8667 83° East 500 575 31,000  Level Gander Center
Wed 01:26:36 AM 51.5667 -63.6500 77° East 500 575 31,000  Level Gander Center
Wed 01:27:36 AM 51.6000 -63.4167 76° East 500 575 31,000  Level Gander Center
Wed 01:28:36 AM 51.6333 -63.2000 76° East 500 575 31,000  Level Gander Center
Wed 01:29:36 AM 51.6667 -62.9833 83° East 500 575 31,000  Level Gander Center
Wed 01:30:36 AM 51.6833 -62.7667 83° East 500 575 31,000 250 Level Gander Center
Wed 01:31:36 AM 51.7000 -62.5500 78° East 500 575 31,500 650 Climbing Gander Center
Wed 01:32:36 AM 51.7333 -62.3000 82° East 500 575 32,300 750 Climbing Gander Center
Wed 01:33:36 AM 51.7500 -62.1000 78° East 500 575 33,000 350 Climbing Gander Center
Wed 01:34:36 AM 51.7833 -61.8500 83° East 510 587 33,000  Level Gander Center
Wed 01:35:36 AM 51.8000 -61.6333 83° East 510 587 33,000  Level Gander Center
Wed 01:36:36 AM 51.8167 -61.4167 76° East 510 587 33,000  Level Gander Center
Wed 01:37:36 AM 51.8500 -61.2000 83° East 500 575 33,000  Level Gander Center
Wed 01:38:36 AM 51.8667 -60.9833 78° East 500 575 33,000  Level Gander Center
Wed 01:39:36 AM 51.9000 -60.7333 76° East 500 575 33,000  Level Gander Center
Wed 01:40:36 AM 51.9333 -60.5167 69° East 510 587 33,000  Level Gander Center
Wed 01:41:36 AM 51.9833 -60.3000 76° East 510 587 33,000  Level Gander Center
Wed 01:42:36 AM 52.0167 -60.0833 69° East 500 575 33,000  Level Gander Center
Wed 01:43:36 AM 52.0667 -59.8667 66° East 500 575 33,000  Level Gander Center
Wed 01:44:36 AM 52.1167 -59.6833 72° East 510 587 33,000  Level Gander Center
Wed 01:45:36 AM 52.1667 -59.4333 75° East 510 587 33,000  Level Gander Center
Wed 01:46:36 AM 52.2000 -59.2333 72° East 510 587 33,000  Level Gander Center
Wed 01:47:36 AM 52.2500 -58.9833 73° East 510 587 33,000  Level Gander Center
Wed 01:48:36 AM 52.2833 -58.8000 72° East 510 587 33,000  Level Gander Center
Wed 01:49:36 AM 52.3333 -58.5500 77° East 510 587 33,000  Level Gander Center
Wed 01:50:36 AM 52.3667 -58.3167 66° East 510 587 33,000  Level Gander Center
Wed 01:51:36 AM 52.4167 -58.1333 78° East 510 587 33,000  Level Gander Center
Wed 01:52:36 AM 52.4500 -57.8833 75° East 510 587 33,000  Level Gander Center
Wed 01:53:36 AM 52.4833 -57.6833 72° East 510 587 33,000  Level Gander Center
Wed 01:54:36 AM 52.5333 -57.4333 68° East 510 587 33,000 250 Level Gander Center
Wed 01:55:36 AM 52.5833 -57.2333 78° East 500 575 33,500 500 Climbing Gander Center
Wed 01:56:36 AM 52.6167 -56.9833 75° East 500 575 34,000 250 Climbing Gander Center
Wed 01:57:36 AM 52.6500 -56.7833 76° East 510 587 34,000  Level Gander Center
Wed 01:58:36 AM 52.6833 -56.5667 70° East 500 575 34,000  Level Gander Center
Wed 01:59:36 AM 52.7333 -56.3333 82° East 490 564 34,000  Level Gander Center
Wed 02:00:36 AM 52.7500 -56.1333 77° East 490 564 34,000  Level Gander Center
Wed 02:01:36 AM 52.7833 -55.8833 67° East 490 564 34,000  Level Gander Center
Wed 02:02:36 AM 52.8333 -55.6833 83° East 500 575 34,000  Level Gander Center
Wed 02:03:36 AM 52.8500 -55.4667 70° East 490 564 34,000  Level Gander Center
Wed 02:04:36 AM 52.9000 -55.2333 77° East 490 564 34,000  Level Gander Center
Wed 02:05:36 AM 52.9333 -55.0000 74° East 500 575 34,000  Level Gander Center
Wed 02:06:36 AM 52.9667 -54.8000 84° East 490 564 34,000  Level Gander Center
Wed 02:07:36 AM 52.9833 -54.5500 63° Northeast 500 575 34,000  Level Gander Center
Wed 02:08:36 AM 53.0333 -54.3833 83° East 490 564 34,000  Level Gander Center
Wed 02:09:36 AM 53.0500 -54.1500 70° East 490 564 34,000  Level Gander Center
Wed 02:10:36 AM 53.1000 -53.9167 67° East 500 575 34,000  Level Gander Center
Wed 02:11:36 AM 53.1500 -53.7167 61° Northeast 490 564 34,000  Level Gander Center
Wed 02:12:36 AM 53.2167 -53.5167 76° East 500 575 34,000  Level Gander Center
Wed 02:13:36 AM 53.2500 -53.2833 69° East 490 564 34,000  Level Gander Center
Wed 02:14:36 AM 53.3000 -53.0667 67° East 490 564 34,000  Level Gander Center
Wed 02:15:36 AM 53.3500 -52.8667 67° East 490 564 34,000  Level Gander Center
Wed 02:16:36 AM 53.4000 -52.6667 63° Northeast 490 564 34,000  Level Gander Center
Wed 02:17:36 AM 53.4667 -52.4500 76° East 490 564 34,000  Level Gander Center
Wed 02:18:36 AM 53.5000 -52.2167 67° East 490 564 34,000  Level Gander Center
Wed 02:19:36 AM 53.5500 -52.0167 69° East 490 564 34,000  Level Gander Center
Wed 02:20:36 AM 53.6000 -51.8000 74° East 490 564 34,000  Level Gander Center
Wed 02:21:36 AM 53.6333 -51.6000 69° East 490 564 34,000  Level Gander Center
Wed 02:22:36 AM 53.6833 -51.3833 70° East 490 564 34,000  Level Gander Center
Wed 02:25:01 AM 53.8000 -50.8333 360° North 490 564 34,000  Level Gander Center
Wed 02:25:01 AM 53.8000 -50.8333 71° East 490 564 34,000  Level Gander Center
Wed 02:32:32 AM 54.1105 -49.2073 73° East  Level FlightAware Approximate
Wed 02:37:32 AM 54.0330 -49.7673 72° East  Level FlightAware Approximate
Wed 02:38:32 AM 54.0645 -49.5452 72° East  Level FlightAware Approximate
Wed 02:39:32 AM 54.0955 -49.3227 73° East  Level FlightAware Approximate
Wed 02:40:32 AM 54.1261 -49.0999 73° East  Level FlightAware Approximate
Wed 02:41:32 AM 54.1563 -48.8767 73° East  Level FlightAware Approximate
Wed 02:42:32 AM 54.1860 -48.6532 73° East  Level FlightAware Approximate
Wed 02:43:32 AM 54.2154 -48.4294 73° East  Level FlightAware Approximate
Wed 02:44:32 AM 54.2444 -48.2053 73° East  Level FlightAware Approximate
Wed 02:45:32 AM 54.2729 -47.9809 74° East  Level FlightAware Approximate
Wed 02:46:32 AM 54.3010 -47.7562 74° East  Level FlightAware Approximate
Wed 02:47:32 AM 54.3287 -47.5311 74° East  Level FlightAware Approximate
Wed 02:48:32 AM 54.3560 -47.3058 74° East  Level FlightAware Approximate
Wed 02:49:32 AM 54.3783 -47.0788 74° East  Level FlightAware Approximate
Wed 02:50:32 AM 54.4049 -46.8529 74° East  Level FlightAware Approximate
Wed 02:51:32 AM 54.4311 -46.6268 75° East  Level FlightAware Approximate
Wed 02:52:32 AM 54.4568 -46.4003 75° East  Level FlightAware Approximate
Wed 02:53:32 AM 54.4821 -46.1736 75° East  Level FlightAware Approximate
Wed 02:54:32 AM 54.5070 -45.9466 75° East  Level FlightAware Approximate
Wed 02:55:32 AM 54.5220 -45.7172 75° East  Level FlightAware Approximate
Wed 02:56:32 AM 54.5557 -45.4933 75° East  Level FlightAware Approximate
Wed 02:57:32 AM 54.5889 -45.2691 76° East  Level FlightAware Approximate
Wed 02:58:32 AM 54.6217 -45.0444 76° East  Level FlightAware Approximate
Wed 02:59:32 AM 54.6541 -44.8195 76° East  Level FlightAware Approximate
Wed 03:00:32 AM 54.6860 -44.5942 76° East  Level FlightAware Approximate
Wed 03:01:32 AM 54.7176 -44.3685 76° East  Level FlightAware Approximate
Wed 03:02:32 AM 54.7487 -44.1425 76° East  Level FlightAware Approximate
Wed 03:03:32 AM 54.7794 -43.9161 77° East  Level FlightAware Approximate
Wed 03:04:32 AM 54.8097 -43.6894 77° East  Level FlightAware Approximate
Wed 03:05:32 AM 54.8395 -43.4624 77° East  Level FlightAware Approximate
Wed 03:06:32 AM 54.8690 -43.2350 77° East  Level FlightAware Approximate
Wed 03:07:32 AM 54.8980 -43.0073 77° East  Level FlightAware Approximate
Wed 03:08:32 AM 54.9266 -42.7793 78° East  Level FlightAware Approximate
Wed 03:09:32 AM 54.9547 -42.5509 78° East  Level FlightAware Approximate
Wed 03:10:32 AM 54.9824 -42.3222 78° East  Level FlightAware Approximate
Wed 03:11:32 AM 55.0098 -42.0932 78° East  Level FlightAware Approximate
Wed 03:12:32 AM 55.0366 -41.8639 78° East  Level FlightAware Approximate
Wed 03:13:32 AM 55.0631 -41.6343 78° East  Level FlightAware Approximate
Wed 03:14:32 AM 55.0891 -41.4044 79° East  Level FlightAware Approximate
Wed 03:15:32 AM 55.1146 -41.1742 79° East  Level FlightAware Approximate
Wed 03:16:32 AM 55.1398 -40.9437 79° East  Level FlightAware Approximate
Wed 03:17:32 AM 55.1645 -40.7130 79° East  Level FlightAware Approximate
Wed 03:18:32 AM 55.1887 -40.4819 79° East  Level FlightAware Approximate
Wed 03:19:32 AM 55.2126 -40.2506 80° East  Level FlightAware Approximate
Wed 03:20:32 AM 55.2409 -40.0206 80° East  Level FlightAware Approximate
Wed 03:21:32 AM 55.2688 -39.7904 80° East  Level FlightAware Approximate
Wed 03:22:32 AM 55.2962 -39.5598 80° East  Level FlightAware Approximate
Wed 03:23:32 AM 55.3232 -39.3289 80° East  Level FlightAware Approximate
Wed 03:24:32 AM 55.3498 -39.0977 81° East  Level FlightAware Approximate
Wed 03:25:32 AM 55.3760 -38.8662 81° East  Level FlightAware Approximate
Wed 03:26:32 AM 55.4017 -38.6343 81° East  Level FlightAware Approximate
Wed 03:27:32 AM 55.4269 -38.4022 81° East  Level FlightAware Approximate
Wed 03:28:32 AM 55.4518 -38.1698 81° East  Level FlightAware Approximate
Wed 03:29:32 AM 55.4762 -37.9371 82° East  Level FlightAware Approximate
Wed 03:30:32 AM 55.5001 -37.7041 82° East  Level FlightAware Approximate
Wed 03:31:32 AM 55.5236 -37.4709 82° East  Level FlightAware Approximate
Wed 03:32:32 AM 55.5467 -37.2373 82° East  Level FlightAware Approximate
Wed 03:33:32 AM 55.5693 -37.0035 82° East  Level FlightAware Approximate
Wed 03:34:32 AM 55.5914 -36.7694 83° East  Level FlightAware Approximate
Wed 03:35:32 AM 55.6132 -36.5351 83° East  Level FlightAware Approximate
Wed 03:36:32 AM 55.6344 -36.3005 83° East  Level FlightAware Approximate
Wed 03:37:32 AM 55.6553 -36.0656 83° East  Level FlightAware Approximate
Wed 03:38:32 AM 55.6756 -35.8305 83° East  Level FlightAware Approximate
Wed 03:39:32 AM 55.6956 -35.5952 84° East  Level FlightAware Approximate
Wed 03:40:32 AM 55.7150 -35.3596 84° East  Level FlightAware Approximate
Wed 03:41:32 AM 55.7341 -35.1238 84° East  Level FlightAware Approximate
Wed 03:42:32 AM 55.7527 -34.8877 84° East  Level FlightAware Approximate
Wed 03:43:32 AM 55.7708 -34.6515 85° East  Level FlightAware Approximate
Wed 03:44:32 AM 55.7884 -34.4150 85° East  Level FlightAware Approximate
Wed 03:45:32 AM 55.8056 -34.1783 85° East  Level FlightAware Approximate
Wed 03:46:32 AM 55.8224 -33.9414 85° East  Level FlightAware Approximate
Wed 03:47:32 AM 55.8387 -33.7043 85° East  Level FlightAware Approximate
Wed 03:48:32 AM 55.8546 -33.4670 86° East  Level FlightAware Approximate
Wed 03:49:32 AM 55.8699 -33.2295 86° East  Level FlightAware Approximate
Wed 03:50:32 AM 55.8849 -32.9918 86° East  Level FlightAware Approximate
Wed 03:51:32 AM 55.8993 -32.7540 86° East  Level FlightAware Approximate
Wed 03:52:32 AM 55.9134 -32.5159 86° East  Level FlightAware Approximate
Wed 03:53:32 AM 55.9269 -32.2777 87° East  Level FlightAware Approximate
Wed 03:54:32 AM 55.9400 -32.0394 87° East  Level FlightAware Approximate
Wed 03:55:32 AM 55.9527 -31.8009 87° East  Level FlightAware Approximate
Wed 03:56:32 AM 55.9648 -31.5622 87° East  Level FlightAware Approximate
Wed 03:57:32 AM 55.9765 -31.3234 88° East  Level FlightAware Approximate
Wed 03:58:32 AM 55.9878 -31.0844 88° East  Level FlightAware Approximate
Wed 03:59:32 AM 55.9986 -30.8453 88° East  Level FlightAware Approximate
Wed 04:00:32 AM 56.0089 -30.6061 88° East  Level FlightAware Approximate
Wed 04:01:32 AM 56.0188 -30.3667 88° East  Level FlightAware Approximate
Wed 04:02:32 AM 56.0282 -30.1273 89° East  Level FlightAware Approximate
Wed 04:03:32 AM 56.0041 -29.8972 89° East  Level FlightAware Approximate
Wed 04:04:32 AM 56.0054 -29.6572 89° East  Level FlightAware Approximate
Wed 04:05:32 AM 56.0062 -29.4173 89° East  Level FlightAware Approximate
Wed 04:06:32 AM 56.0066 -29.1773 89° East  Level FlightAware Approximate
Wed 04:07:32 AM 56.0065 -28.9373 90° East  Level FlightAware Approximate
Wed 04:08:32 AM 56.0059 -28.6974 90° East  Level FlightAware Approximate
Wed 04:09:32 AM 56.0048 -28.4575 90° East  Level FlightAware Approximate
Wed 04:10:32 AM 56.0033 -28.2175 90° East  Level FlightAware Approximate
Wed 04:11:32 AM 56.0014 -27.9776 90° East  Level FlightAware Approximate
Wed 04:12:32 AM 55.9989 -27.7377 90° East  Level FlightAware Approximate
Wed 04:13:32 AM 55.9960 -27.4979 91° East  Level FlightAware Approximate
Wed 04:14:32 AM 55.9926 -27.2581 91° East  Level FlightAware Approximate
Wed 04:15:32 AM 55.9888 -27.0183 91° East  Level FlightAware Approximate
Wed 04:16:32 AM 55.9845 -26.7786 91° East  Level FlightAware Approximate
Wed 04:17:32 AM 55.9797 -26.5389 91° East  Level FlightAware Approximate
Wed 04:18:32 AM 55.9745 -26.2994 92° East  Level FlightAware Approximate
Wed 04:19:32 AM 55.9688 -26.0598 92° East  Level FlightAware Approximate
Wed 04:20:32 AM 55.9626 -25.8204 92° East  Level FlightAware Approximate
Wed 04:21:32 AM 55.9560 -25.5810 92° East  Level FlightAware Approximate
Wed 04:22:32 AM 55.9489 -25.3417 92° East  Level FlightAware Approximate
Wed 04:23:32 AM 55.9413 -25.1025 93° East  Level FlightAware Approximate
Wed 04:24:32 AM 55.9333 -24.8634 93° East  Level FlightAware Approximate
Wed 04:25:32 AM 55.9248 -24.6244 93° East  Level FlightAware Approximate
Wed 04:26:32 AM 55.9159 -24.3855 93° East  Level FlightAware Approximate
Wed 04:27:32 AM 55.9065 -24.1467 93° East  Level FlightAware Approximate
Wed 04:28:32 AM 55.8966 -23.9081 94° East  Level FlightAware Approximate
Wed 04:29:32 AM 55.8863 -23.6695 94° East  Level FlightAware Approximate
Wed 04:30:32 AM 55.8755 -23.4311 94° East  Level FlightAware Approximate
Wed 04:31:32 AM 55.8643 -23.1929 94° East  Level FlightAware Approximate
Wed 04:32:32 AM 55.8526 -22.9547 94° East  Level FlightAware Approximate
Wed 04:33:32 AM 55.8404 -22.7168 94° East  Level FlightAware Approximate
Wed 04:34:32 AM 55.8278 -22.4789 95° East  Level FlightAware Approximate
Wed 04:35:32 AM 55.8147 -22.2412 95° East  Level FlightAware Approximate
Wed 04:36:32 AM 55.8011 -22.0037 95° East  Level FlightAware Approximate
Wed 04:37:32 AM 55.7871 -21.7664 95° East  Level FlightAware Approximate
Wed 04:38:32 AM 55.7727 -21.5292 95° East  Level FlightAware Approximate
Wed 04:39:32 AM 55.7577 -21.2922 96° East  Level FlightAware Approximate
Wed 04:40:32 AM 55.7424 -21.0554 96° East  Level FlightAware Approximate
Wed 04:41:32 AM 55.7265 -20.8188 96° East  Level FlightAware Approximate
Wed 04:42:32 AM 55.7103 -20.5824 96° East  Level FlightAware Approximate
Wed 04:43:32 AM 55.6935 -20.3461 96° East  Level FlightAware Approximate
Wed 04:44:32 AM 55.6737 -20.1108 96° East  Level FlightAware Approximate
Wed 04:45:32 AM 55.6535 -19.8757 97° East  Level FlightAware Approximate
Wed 04:46:32 AM 55.6328 -19.6408 97° East  Level FlightAware Approximate
Wed 04:47:32 AM 55.6116 -19.4062 97° East  Level FlightAware Approximate
Wed 04:48:32 AM 55.5900 -19.1718 97° East  Level FlightAware Approximate
Wed 04:49:32 AM 55.5680 -18.9377 97° East  Level FlightAware Approximate
Wed 04:50:32 AM 55.5455 -18.7038 97° East  Level FlightAware Approximate
Wed 04:51:32 AM 55.5225 -18.4702 98° East  Level FlightAware Approximate
Wed 04:52:32 AM 55.4991 -18.2369 98° East  Level FlightAware Approximate
Wed 04:53:32 AM 55.4753 -18.0039 98° East  Level FlightAware Approximate
Wed 04:54:32 AM 55.4510 -17.7712 98° East  Level FlightAware Approximate
Wed 04:55:32 AM 55.4263 -17.5387 98° East  Level FlightAware Approximate
Wed 04:56:32 AM 55.4012 -17.3066 98° East  Level FlightAware Approximate
Wed 04:57:32 AM 55.3756 -17.0747 99° East  Level FlightAware Approximate
Wed 04:58:32 AM 55.3496 -16.8431 99° East  Level FlightAware Approximate
Wed 04:59:32 AM 55.3231 -16.6119 99° East  Level FlightAware Approximate
Wed 05:00:32 AM 55.2962 -16.3810 99° East  Level FlightAware Approximate
Wed 05:01:32 AM 55.2689 -16.1503 99° East  Level FlightAware Approximate
Wed 05:02:32 AM 55.2411 -15.9200 99° East  Level FlightAware Approximate
Wed 05:03:32 AM 55.2129 -15.6901 99° East  Level FlightAware Approximate
Wed 05:04:32 AM 55.1843 -15.4604 100° East  Level FlightAware Approximate
Wed 05:05:32 AM 55.1553 -15.2311 100° East  Level FlightAware Approximate
Wed 05:06:32 AM 55.1258 -15.0021 100° East  Level FlightAware Approximate
Wed 05:07:32 AM 55.0958 -14.7735 100° East  Level FlightAware Approximate
Wed 05:08:32 AM 55.0655 -14.5452 100° East  Level FlightAware Approximate
Wed 05:09:32 AM 55.0347 -14.3172 100° East  Level FlightAware Approximate
Wed 05:10:32 AM 55.0035 -14.0896 100° East  Level FlightAware Approximate
Wed 05:11:32 AM 54.9719 -13.8624 100° East  Level FlightAware Approximate
Wed 05:12:32 AM 54.9398 -13.6355 101° East  Level FlightAware Approximate
Wed 05:13:32 AM 54.9074 -13.4090 101° East  Level FlightAware Approximate
Wed 05:14:32 AM 54.8745 -13.1828 101° East  Level FlightAware Approximate
Wed 05:15:32 AM 54.8412 -12.9571 101° East  Level FlightAware Approximate
Wed 05:16:32 AM 54.8074 -12.7317 101° East  Level FlightAware Approximate
Wed 05:17:32 AM 54.7733 -12.5066 101° East  Level FlightAware Approximate
Wed 05:18:32 AM 54.7388 -12.2820 101° East  Level FlightAware Approximate
Wed 05:19:32 AM 54.7038 -12.0577 101° East  Level FlightAware Approximate
Wed 05:20:32 AM 54.6684 -11.8338 101° East  Level FlightAware Approximate
Wed 05:21:32 AM 54.6326 -11.6104 101° East  Level FlightAware Approximate
Wed 05:22:32 AM 54.5964 -11.3873 101° East  Level FlightAware Approximate
Wed 05:23:32 AM 54.5598 -11.1646 102° East  Level FlightAware Approximate
Wed 05:24:32 AM 54.5227 -10.9423 102° East  Level FlightAware Approximate
Wed 05:25:32 AM 54.4853 -10.7205 102° East  Level FlightAware Approximate
Wed 05:26:32 AM 54.4475 -10.4990 102° East  Level FlightAware Approximate
Wed 05:27:32 AM 54.4092 -10.2779 102° East  Level FlightAware Approximate
Wed 05:28:32 AM 54.3790 -10.0534 102° East  Level FlightAware Approximate
Wed 05:29:32 AM 54.3483 -9.8293 102° East  Level FlightAware Approximate
Wed 05:30:32 AM 54.3172 -9.6054 102° East  Level FlightAware Approximate
Wed 05:31:32 AM 54.2857 -9.3819 102° East  Level FlightAware Approximate
Wed 05:32:32 AM 54.2538 -9.1588 102° East  Level FlightAware Approximate
Wed 05:33:32 AM 54.2215 -8.9360 102° East  Level FlightAware Approximate
Wed 05:34:32 AM 54.1888 -8.7135 103° East  Level FlightAware Approximate
Wed 05:35:32 AM 54.1556 -8.4914 103° East  Level FlightAware Approximate
Wed 05:36:32 AM 54.1221 -8.2697 103° East  Level FlightAware Approximate
Wed 05:37:32 AM 54.0881 -8.0483 103° East  Level FlightAware Approximate
Wed 05:38:32 AM 54.0537 -7.8273 103° East  Level FlightAware Approximate
Wed 05:39:32 AM 53.9991 -7.6188 103° East  Level FlightAware Approximate
Wed 05:40:32 AM 53.9440 -7.4108 102° East  Level FlightAware Approximate
Wed 05:41:32 AM 53.8886 -7.2033 102° East  Level FlightAware Approximate
Wed 05:42:32 AM 53.8328 -6.9964 101° East  Level FlightAware Approximate
Wed 05:43:32 AM 53.7767 -6.7901 100° East  Level FlightAware Approximate
Wed 05:44:32 AM 53.7202 -6.5843 99° East  Level FlightAware Approximate
Wed 05:45:32 AM 53.6634 -6.3790 98° East  Level FlightAware Approximate
Wed 05:46:32 AM 53.6062 -6.1743 97° East  Level FlightAware Approximate
Wed 05:47:32 AM 53.5487 -5.9702 96° East  Level FlightAware Approximate
Wed 05:48:32 AM 53.4908 -5.7666 94° East  Level FlightAware Approximate
Wed 05:49:34 AM 53.3600 -3.3936 116° Southeast 536 617 34,000  Level FlightAware ADS-B
Wed 05:50:05 AM 53.3267 -3.2790 117° Southeast 539 620 34,000  Level FlightAware ADS-B
Wed 05:50:38 AM 53.2896 -3.1574 117° Southeast 540 621 34,000  Level FlightAware ADS-B
Wed 05:51:09 AM 53.2538 -3.0418 118° Southeast 540 621 34,000  Level FlightAware ADS-B
Wed 05:51:41 AM 53.2175 -2.9256 118° Southeast 540 621 34,000  Level FlightAware ADS-B
Wed 05:52:11 AM 53.1823 -2.8131 118° Southeast 539 620 34,000  Level FlightAware ADS-B
Wed 05:52:39 AM 53.1510 -2.7150 131° Southeast 539 620 34,000  Level FlightAware ADS-B
Wed 05:53:17 AM 53.0890 -2.5974 143° Southeast 540 621 34,000  Level FlightAware ADS-B
Wed 05:53:22 AM 53.0785 -2.5843 144° Southeast 536 617 34,000  Level FlightAware ADS-B
Wed 05:53:52 AM 53.0172 -2.5104 144° Southeast 535 616 34,000 -381 Level FlightAware ADS-B
Wed 05:54:25 AM 52.9520 -2.4312 144° Southeast 535 616 33,600 -1,219 Descending FlightAware ADS-B
Wed 05:54:56 AM 52.8897 -2.3558 144° Southeast 537 618 32,700 -1,688 Descending FlightAware ADS-B
Wed 05:55:29 AM 52.8267 -2.2804 145° Southeast 521 600 31,800 -1,800 Descending FlightAware ADS-B
Wed 05:55:56 AM 52.7739 -2.2185 148° Southeast 510 587 30,900 -1,900 Descending FlightAware ADS-B
Wed 05:56:29 AM 52.7093 -2.1516 148° Southeast 500 575 29,900 -2,091 Descending FlightAware ADS-B
Wed 05:57:02 AM 52.6456 -2.0856 148° Southeast 493 567 28,600 -2,273 Descending FlightAware ADS-B
Wed 05:57:35 AM 52.5812 -2.0199 148° Southeast 483 556 27,400 -2,149 Descending FlightAware ADS-B
Wed 05:58:09 AM 52.5200 -1.9579 149° Southeast 473 544 26,200 -2,063 Descending FlightAware ADS-B
Wed 05:58:39 AM 52.4626 -1.9002 148° Southeast 462 532 25,200 -1,967 Descending FlightAware ADS-B
Wed 05:59:10 AM 52.4072 -1.8445 149° Southeast 457 526 24,200 -1,869 Descending FlightAware ADS-B
Wed 05:59:40 AM 52.3526 -1.7904 149° Southeast 453 521 23,300 -1,672 Descending FlightAware ADS-B
Wed 06:00:11 AM 52.2995 -1.7380 149° Southeast 445 512 22,500 -1,645 Descending FlightAware ADS-B
Wed 06:00:42 AM 52.2443 -1.6840 149° Southeast 436 502 21,600 -1,672 Descending FlightAware ADS-B
Wed 06:01:12 AM 52.1924 -1.6335 149° Southeast 429 494 20,800 -1,574 Descending FlightAware ADS-B
Wed 06:01:43 AM 52.1413 -1.5843 150° Southeast 417 480 20,000 -1,452 Descending FlightAware ADS-B
Wed 06:02:14 AM 52.0905 -1.5362 150° Southeast 408 470 19,300 -1,475 Descending FlightAware ADS-B
Wed 06:02:44 AM 52.0412 -1.4895 150° Southeast 402 463 18,500 -1,574 Descending FlightAware ADS-B
Wed 06:03:15 AM 51.9927 -1.4444 150° Southeast 397 457 17,700 -1,574 Descending FlightAware ADS-B
Wed 06:03:45 AM 51.9451 -1.4000 150° Southeast 393 452 16,900 -1,615 Descending FlightAware ADS-B
Wed 06:04:07 AM 51.9096 -1.3664 147° Southeast 390 449 16,300 -1,615 Descending FlightAware ADS-B
Wed 06:04:11 AM 51.9051 -1.3616 140° Southeast 389 448 16,200 -1,500 Descending FlightAware ADS-B
Wed 06:04:19 AM 51.8935 -1.3459 131° Southeast 389 448 16,000 -1,412 Descending FlightAware ADS-B
Wed 06:04:28 AM 51.8832 -1.3269 123° Southeast 387 445 15,800 -1,500 Descending FlightAware ADS-B
Wed 06:04:35 AM 51.8760 -1.3090 116° Southeast 384 442 15,600 -1,600 Descending FlightAware ADS-B
Wed 06:04:43 AM 51.8696 -1.2876 110° East 380 437 15,400 -1,500 Descending FlightAware ADS-B
Wed 06:05:07 AM 51.8557 -1.2252 107° East 374 430 14,800 -1,309 Descending FlightAware ADS-B
Wed 06:05:38 AM 51.8404 -1.1448 107° East 364 419 14,200 -984 Descending FlightAware ADS-B
Wed 06:06:08 AM 51.8255 -1.0667 108° East 354 407 13,800 -1,059 Descending FlightAware ADS-B
Wed 06:06:29 AM 51.8152 -1.0158 108° East 350 403 13,300 -1,091 Descending FlightAware ADS-B
Wed 06:06:52 AM 51.8035 -0.9591 109° East 338 389 13,000 -686 Descending FlightAware ADS-B
Wed 06:07:04 AM 51.7979 -0.9325 109° East 332 382 12,900 -882 Descending FlightAware ADS-B
Wed 06:07:26 AM 51.7871 -0.8809 109° East 328 377 12,500 -1,269 Descending FlightAware ADS-B
Wed 06:07:56 AM 51.7727 -0.8120 109° East 325 374 11,800 -1,286 Descending FlightAware ADS-B
Wed 06:08:22 AM 51.7598 -0.7509 109° East 320 368 11,300 -1,091 Descending FlightAware ADS-B
Wed 06:08:40 AM 51.7515 -0.7117 109° East 316 364 11,000 -923 Descending FlightAware ADS-B
Wed 06:09:01 AM 51.7419 -0.6658 109° East 307 353 10,700 -706 Descending FlightAware ADS-B
Wed 06:09:31 AM 51.7283 -0.6006 109° East 291 335 10,400 -689 Descending FlightAware ADS-B
Wed 06:10:02 AM 51.7155 -0.5395 110° East 279 321 10,000 -600 Descending FlightAware ADS-B
Wed 06:10:11 AM 51.7116 -0.5220 115° Southeast 276 318 10,000  Level FlightAware ADS-B
Wed 06:10:14 AM 51.7099 -0.5160 124° Southeast 278 320 10,000  Level FlightAware ADS-B
Wed 06:10:19 AM 51.7064 -0.5076 133° Southeast 280 322 10,000  Level FlightAware ADS-B
Wed 06:10:24 AM 51.7020 -0.5001 141° Southeast 283 326 10,000  Level FlightAware ADS-B
Wed 06:10:28 AM 51.6977 -0.4945 150° Southeast 283 326 10,000  Level FlightAware ADS-B
Wed 06:10:34 AM 51.6916 -0.4888 159° South 282 325 10,000  Level FlightAware ADS-B
Wed 06:10:40 AM 51.6835 -0.4838 168° South 281 323 10,000  Level FlightAware ADS-B
Wed 06:10:43 AM 51.6795 -0.4825 180° South 280 322 10,000  Level FlightAware ADS-B
Wed 06:10:54 AM 51.6663 -0.4826 193° South 274 315 10,000  Level FlightAware ADS-B
Wed 06:10:57 AM 51.6619 -0.4842 201° Southwest 270 311 10,000  Level FlightAware ADS-B
Wed 06:11:00 AM 51.6585 -0.4863 204° Southwest 268 308 10,000 -857 Level FlightAware ADS-B
Wed 06:11:04 AM 51.6542 -0.4894 210° Southwest 264 304 9,900 -857 Descending FlightAware ADS-B
Wed 06:11:07 AM 51.6508 -0.4925 218° Southwest 261 300 9,900 -857 Level FlightAware ADS-B
Wed 06:11:11 AM 51.6472 -0.4971 224° Southwest 257 296 9,800 -750 Descending FlightAware ADS-B
Wed 06:11:15 AM 51.6437 -0.5026 230° Southwest 253 291 9,800 -750 Level FlightAware ADS-B
Wed 06:11:19 AM 51.6411 -0.5076 238° Southwest 249 287 9,700 -1,333 Descending FlightAware ADS-B
Wed 06:11:24 AM 51.6382 -0.5150 245° Southwest 244 281 9,600 -750 Descending FlightAware ADS-B
Wed 06:11:27 AM 51.6367 -0.5201 248° West 241 277 9,600 -1,000 Level FlightAware ADS-B
Wed 06:11:30 AM 51.6354 -0.5253 254° West 239 275 9,500 -857 Descending FlightAware ADS-B
Wed 06:11:34 AM 51.6343 -0.5314 263° West 235 270 9,500 -750 Level FlightAware ADS-B
Wed 06:11:38 AM 51.6337 -0.5389 263° West 232 267 9,400 -1,714 Descending FlightAware ADS-B
Wed 06:11:41 AM 51.6333 -0.5445 275° West 230 265 9,300 -1,800 Descending FlightAware ADS-B
Wed 06:11:48 AM 51.6339 -0.5567 283° West 227 261 9,100 -1,500 Descending FlightAware ADS-B
Wed 06:11:53 AM 51.6350 -0.5646 290° West 226 260 9,000 -1,333 Descending FlightAware ADS-B
Wed 06:11:57 AM 51.6365 -0.5711 292° West 225 259 8,900 -1,500 Descending FlightAware ADS-B
Wed 06:12:01 AM 51.6379 -0.5766 301° West 225 259 8,800 -1,500 Descending FlightAware ADS-B
Wed 06:12:05 AM 51.6403 -0.5831 299° West 226 260 8,700 -1,333 Descending FlightAware ADS-B
Wed 06:12:10 AM 51.6427 -0.5900 298° West 227 261 8,600 -1,333 Descending FlightAware ADS-B
Wed 06:12:14 AM 51.6448 -0.5965 289° West 228 262 8,500 -1,286 Descending FlightAware ADS-B
Wed 06:12:24 AM 51.6481 -0.6116 290° West 230 265 8,300 -1,412 Descending FlightAware ADS-B
Wed 06:12:31 AM 51.6507 -0.6229 292° West 229 264 8,100 -1,125 Descending FlightAware ADS-B
Wed 06:12:40 AM 51.6540 -0.6360 295° West 227 261 8,000 -250 Descending FlightAware ADS-B
Wed 06:12:55 AM 51.6607 -0.6591 296° West 223 257 8,000  Level FlightAware ADS-B
Wed 06:13:06 AM 51.6655 -0.6753 297° West 223 257 8,000  Level FlightAware ADS-B
Wed 06:13:22 AM 51.6707 -0.6918 299° West 222 255 8,000  Level FlightAware ADS-B
Wed 06:13:30 AM 51.6731 -0.6987 308° West 221 254 8,000  Level FlightAware ADS-B
Wed 06:13:37 AM 51.6765 -0.7057 326° Northwest 221 254 8,000  Level FlightAware ADS-B
Wed 06:13:41 AM 51.6889 -0.7192 335° Northwest 224 258 8,000  Level FlightAware ADS-B
Wed 06:13:45 AM 51.6922 -0.7216 340° North 225 259 8,000  Level FlightAware ADS-B
Wed 06:13:49 AM 51.6964 -0.7241 345° North 227 261 8,000  Level FlightAware ADS-B
Wed 06:13:54 AM 51.7016 -0.7264 352° North 229 264 8,000  Level FlightAware ADS-B
Wed 06:13:58 AM 51.7052 -0.7272 358° North 231 266 8,000  Level FlightAware ADS-B
Wed 06:14:03 AM 51.7104 -0.7275 North 233 268 8,000  Level FlightAware ADS-B
Wed 06:14:07 AM 51.7151 -0.7269 North 234 269 8,000  Level FlightAware ADS-B
Wed 06:14:10 AM 51.7182 -0.7262 14° North 236 272 8,000  Level FlightAware ADS-B
Wed 06:14:14 AM 51.7225 -0.7245 19° North 238 274 8,000  Level FlightAware ADS-B
Wed 06:14:17 AM 51.7255 -0.7228 27° Northeast 239 275 8,000  Level FlightAware ADS-B
Wed 06:14:22 AM 51.7311 -0.7183 35° Northeast 242 278 8,000  Level FlightAware ADS-B
Wed 06:14:27 AM 51.7349 -0.7140 40° Northeast 245 282 8,000  Level FlightAware ADS-B
Wed 06:14:30 AM 51.7381 -0.7098 48° Northeast 247 284 8,000  Level FlightAware ADS-B
Wed 06:14:35 AM 51.7421 -0.7027 54° Northeast 251 289 8,000  Level FlightAware ADS-B
Wed 06:14:38 AM 51.7442 -0.6980 59° Northeast 254 292 8,000  Level FlightAware ADS-B
Wed 06:14:42 AM 51.7465 -0.6918 67° East 257 296 8,000  Level FlightAware ADS-B
Wed 06:14:46 AM 51.7480 -0.6860 69° East 259 298 8,000  Level FlightAware ADS-B
Wed 06:14:49 AM 51.7494 -0.6800 78° East 262 302 8,000  Level FlightAware ADS-B
Wed 06:14:52 AM 51.7503 -0.6732 82° East 264 304 8,000  Level FlightAware ADS-B
Wed 06:14:56 AM 51.7510 -0.6651 91° East 265 305 8,000  Level FlightAware ADS-B
Wed 06:15:01 AM 51.7509 -0.6581 97° East 266 306 8,000  Level FlightAware ADS-B
Wed 06:15:06 AM 51.7500 -0.6469 106° East 269 310 8,000  Level FlightAware ADS-B
Wed 06:15:09 AM 51.7490 -0.6411 110° East 270 311 8,000  Level FlightAware ADS-B
Wed 06:15:12 AM 51.7476 -0.6349 116° Southeast 270 311 8,000  Level FlightAware ADS-B
Wed 06:15:22 AM 51.7423 -0.6171 114° Southeast 270 311 8,000  Level FlightAware ADS-B
Wed 06:15:37 AM 51.7346 -0.5895 115° Southeast 271 312 8,000  Level FlightAware ADS-B
Wed 06:15:46 AM 51.7297 -0.5727 116° Southeast 271 312 8,000  Level FlightAware ADS-B
Wed 06:16:02 AM 51.7210 -0.5445 118° Southeast 271 312 8,000  Level FlightAware ADS-B
Wed 06:16:17 AM 51.7124 -0.5180 131° Southeast 270 311 8,000  Level FlightAware ADS-B
Wed 06:16:29 AM 51.7023 -0.4993 149° Southeast 270 311 8,000  Level FlightAware ADS-B
Wed 06:16:33 AM 51.6985 -0.4955 154° Southeast 268 308 8,000  Level FlightAware ADS-B
Wed 06:16:36 AM 51.6942 -0.4922 160° South 267 307 8,000  Level FlightAware ADS-B
Wed 06:16:41 AM 51.6890 -0.4891 161° South 268 308 8,000  Level FlightAware ADS-B
Wed 06:16:56 AM 51.6719 -0.4799 161° South 271 312 8,000  Level FlightAware ADS-B
Wed 06:17:11 AM 51.6540 -0.4700 161° South 268 308 8,000  Level FlightAware ADS-B
Wed 06:17:26 AM 51.6362 -0.4598 158° South 268 308 8,000  Level FlightAware ADS-B
Wed 06:17:32 AM 51.6285 -0.4549 151° Southeast 269 310 8,000  Level FlightAware ADS-B
Wed 06:17:37 AM 51.6236 -0.4504 144° Southeast 270 311 8,000  Level FlightAware ADS-B
Wed 06:17:42 AM 51.6187 -0.4446 135° Southeast 270 311 8,000 -600 Level FlightAware ADS-B
Wed 06:17:57 AM 51.6060 -0.4240 128° Southeast 267 307 7,800 -947 Descending FlightAware ADS-B
Wed 06:18:01 AM 51.6026 -0.4170 116° Southeast 266 306 7,700 -1,000 Descending FlightAware ADS-B
Wed 06:18:09 AM 51.5986 -0.4036 109° East 264 304 7,600 -923 Descending FlightAware ADS-B
Wed 06:18:14 AM 51.5964 -0.3931 108° East 263 303 7,500 -1,364 Descending FlightAware ADS-B
Wed 06:18:31 AM 51.5901 -0.3627 110° East 263 303 7,100 -1,273 Descending FlightAware ADS-B
Wed 06:18:47 AM 51.5833 -0.3321 109° East 260 299 6,800 -909 Descending FlightAware ADS-B
Wed 06:19:04 AM 51.5770 -0.3023 107° East 256 295 6,600 -720 Descending FlightAware ADS-B
Wed 06:19:12 AM 51.5742 -0.2873 104° East 255 293 6,500 -1,091 Descending FlightAware ADS-B
Wed 06:19:26 AM 51.5703 -0.2614 104° East 254 292 6,200 -1,241 Descending FlightAware ADS-B
Wed 06:19:41 AM 51.5660 -0.2335 103° East 255 293 5,900 -1,091 Descending FlightAware ADS-B
Wed 06:19:59 AM 51.5615 -0.2017 104° East 252 290 5,600 -882 Descending FlightAware ADS-B
Wed 06:20:15 AM 51.5572 -0.1732 103° East 250 288 5,400 -938 Descending FlightAware ADS-B
Wed 06:20:31 AM 51.5528 -0.1428 103° East 248 285 5,100 -1,235 Descending FlightAware ADS-B
Wed 06:20:49 AM 51.5482 -0.1118 104° East 248 285 4,700 -1,200 Descending FlightAware ADS-B
Wed 06:21:06 AM 51.5435 -0.0817 104° East 247 284 4,400 -1,091 Descending FlightAware ADS-B
Wed 06:21:22 AM 51.5391 -0.0527 122° Southeast 242 278 4,100 -621 Descending FlightAware ADS-B
Wed 06:21:35 AM 51.5320 -0.0346 142° Southeast 234 269 4,100 -300 Level FlightAware ADS-B
Wed 06:21:42 AM 51.5262 -0.0273 184° South 221 254 4,000 -600 Descending FlightAware ADS-B
Wed 06:22:15 AM 51.4977 -0.0304 233° Southwest 219 252 3,700 -462 Descending FlightAware ADS-B
Wed 06:22:21 AM 51.4947 -0.0368 243° Southwest 178 205 3,700  Level FlightAware ADS-B
Wed 06:22:29 AM 51.4915 -0.0468 247° West 177 204 3,700 -200 Level FlightAware ADS-B
Wed 06:22:51 AM 51.4845 -0.0732 244° Southwest 179 206 3,600 -286 Descending FlightAware ADS-B
Wed 06:23:11 AM 51.4776 -0.0961 245° Southwest 174 200 3,500 -486 Descending FlightAware ADS-B
Wed 06:23:28 AM 51.4717 -0.1160 245° Southwest 177 204 3,300 -563 Descending FlightAware ADS-B
Wed 06:23:43 AM 51.4662 -0.1347 245° Southwest 177 204 3,200 -643 Descending FlightAware ADS-B
Wed 06:23:56 AM 51.4618 -0.1499 246° West 178 205 3,000 -783 Descending FlightAware ADS-B
Wed 06:24:06 AM 51.4583 -0.1623 245° Southwest 180 207 2,900 -960 Descending FlightAware ADS-B
Wed 06:24:21 AM 51.4532 -0.1795 250° West 182 209 2,600 -947 Descending FlightAware ADS-B
Wed 06:24:25 AM 51.4519 -0.1853 257° West 181 208 2,600 -1,200 Level FlightAware ADS-B
Wed 06:24:31 AM 51.4507 -0.1934 264° West 180 207 2,400 -1,636 Descending FlightAware ADS-B
Wed 06:24:36 AM 51.4503 -0.1999 271° West 179 206 2,300 -923 Descending FlightAware ADS-B
Wed 06:24:44 AM 51.4504 -0.2094 271° West 176 203 2,200 -857 Descending FlightAware ADS-B
Wed 06:25:11 AM 51.4507 -0.2430 269° West 171 197 1,800 -1,050 Descending FlightAware ADS-B
Wed 06:25:24 AM 51.4505 -0.2593 282° West 160 184 1,500 -1,385 Descending FlightAware ADS-B
Wed 06:32:32 AM 51.6428 -1.7668 102° East  Level Estimated
Wed 06:33:32 AM 51.4667 -0.4500 102° East  Level FlightAware Approximate

Login

Don't have an account? Register now (free) for customized features, flight alerts, and more!